N66HR EDDG-EDDS
Flight info
| Callsign | N66HR |
|---|---|
| Flight time | 0h 59m |
| Altitude | 29000 |
| Route | DOMEG1E/07 DOMEG Z841 GMH Q603 TESGA L603 BOMBI N850 KRH T128 BADSO BADSO2A EDDS/25 |
| Aircraft | SF50/L-V/N |
Departure
| Time | 2026-05-05 19:05 |
|---|---|
| Airport | Münster Osnabrück Airport (EDDG) |
Arrival
| Time | 2026-05-05 20:04 |
|---|---|
| Airport | Stuttgart Airport (EDDS) |
| Time | Latitude | Longitude | Altitude | Speed | Heading |
|---|---|---|---|---|---|
| 2026-05-05 18:55 | 52.13124 | 7.68611 | 155 ft | 0 kts | 271° |
| 2026-05-05 19:00 | 52.13123 | 7.68553 | 155 ft | 13 kts | 265° |
| 2026-05-05 19:00 | 52.13112 | 7.68405 | 155 ft | 8 kts | 309° |
| 2026-05-05 19:01 | 52.13155 | 7.68378 | 155 ft | 14 kts | 341° |
| 2026-05-05 19:01 | 52.13234 | 7.68294 | 155 ft | 15 kts | 283° |
| 2026-05-05 19:01 | 52.13207 | 7.68095 | 155 ft | 22 kts | 255° |
| 2026-05-05 19:01 | 52.13163 | 7.67890 | 155 ft | 18 kts | 253° |
| 2026-05-05 19:02 | 52.13125 | 7.67693 | 155 ft | 20 kts | 245° |
| 2026-05-05 19:02 | 52.13064 | 7.67431 | 156 ft | 27 kts | 251° |
| 2026-05-05 19:02 | 52.13029 | 7.67243 | 156 ft | 16 kts | 261° |
| 2026-05-05 19:02 | 52.13078 | 7.67070 | 155 ft | 17 kts | 332° |
| 2026-05-05 19:03 | 52.13163 | 7.67080 | 156 ft | 9 kts | 66° |
| 2026-05-05 19:03 | 52.13168 | 7.67097 | 157 ft | 0 kts | 71° |
| 2026-05-05 19:04 | 52.13177 | 7.67135 | 158 ft | 23 kts | 70° |
| 2026-05-05 19:05 | 52.13312 | 7.67757 | 160 ft | 88 kts | 69° |
| 2026-05-05 19:05 | 52.13514 | 7.68837 | 491 ft | 104 kts | 71° |
| 2026-05-05 19:05 | 52.13752 | 7.70037 | 949 ft | 120 kts | 66° |
| 2026-05-05 19:05 | 52.14062 | 7.71356 | 1497 ft | 133 kts | 69° |
| 2026-05-05 19:06 | 52.14381 | 7.72845 | 2034 ft | 150 kts | 68° |
| 2026-05-05 19:06 | 52.14737 | 7.74501 | 2566 ft | 165 kts | 70° |
| 2026-05-05 19:06 | 52.15125 | 7.76340 | 3081 ft | 180 kts | 70° |
| 2026-05-05 19:06 | 52.15538 | 7.78313 | 3597 ft | 192 kts | 70° |
| 2026-05-05 19:07 | 52.15846 | 7.80482 | 4092 ft | 206 kts | 95° |
| 2026-05-05 19:07 | 52.15122 | 7.82477 | 4634 ft | 220 kts | 139° |
| 2026-05-05 19:07 | 52.13717 | 7.83529 | 5165 ft | 228 kts | 157° |
| 2026-05-05 19:07 | 52.12198 | 7.84411 | 5702 ft | 234 kts | 161° |
| 2026-05-05 19:08 | 52.10668 | 7.85262 | 6216 ft | 237 kts | 161° |
| 2026-05-05 19:08 | 52.09041 | 7.85431 | 6723 ft | 240 kts | 197° |
| 2026-05-05 19:08 | 52.07490 | 7.84444 | 7242 ft | 241 kts | 203° |
| 2026-05-05 19:08 | 52.05954 | 7.83362 | 7749 ft | 242 kts | 204° |
| 2026-05-05 19:09 | 52.04432 | 7.82282 | 8250 ft | 242 kts | 204° |
| 2026-05-05 19:09 | 52.02885 | 7.81172 | 8753 ft | 242 kts | 206° |
| 2026-05-05 19:09 | 52.01279 | 7.80647 | 9252 ft | 240 kts | 180° |
| 2026-05-05 19:09 | 51.99618 | 7.80701 | 9751 ft | 240 kts | 178° |
| 2026-05-05 19:10 | 51.97966 | 7.80843 | 10250 ft | 239 kts | 177° |
| 2026-05-05 19:10 | 51.96315 | 7.81010 | 10740 ft | 238 kts | 177° |
| 2026-05-05 19:10 | 51.94675 | 7.81182 | 11236 ft | 237 kts | 177° |
| 2026-05-05 19:10 | 51.93045 | 7.81352 | 11735 ft | 235 kts | 177° |
| 2026-05-05 19:11 | 51.91426 | 7.81521 | 12222 ft | 234 kts | 177° |
| 2026-05-05 19:11 | 51.89806 | 7.81689 | 12713 ft | 232 kts | 177° |
| 2026-05-05 19:11 | 51.88222 | 7.81855 | 13192 ft | 230 kts | 177° |
| 2026-05-05 19:11 | 51.86632 | 7.82023 | 13685 ft | 228 kts | 176° |
| 2026-05-05 19:12 | 51.85055 | 7.82188 | 14174 ft | 226 kts | 176° |
| 2026-05-05 19:12 | 51.83492 | 7.82351 | 14537 ft | 229 kts | 176° |
| 2026-05-05 19:12 | 51.81890 | 7.82519 | 14911 ft | 232 kts | 176° |
| 2026-05-05 19:12 | 51.80289 | 7.82686 | 15281 ft | 233 kts | 176° |
| 2026-05-05 19:13 | 51.78657 | 7.82857 | 15657 ft | 235 kts | 176° |
| 2026-05-05 19:13 | 51.77047 | 7.83024 | 16019 ft | 235 kts | 176° |
| 2026-05-05 19:13 | 51.75412 | 7.83194 | 16399 ft | 235 kts | 176° |
| 2026-05-05 19:13 | 51.73788 | 7.83365 | 16771 ft | 235 kts | 176° |
| 2026-05-05 19:14 | 51.72150 | 7.83534 | 17141 ft | 235 kts | 176° |
| 2026-05-05 19:14 | 51.70524 | 7.83703 | 17511 ft | 234 kts | 176° |
| 2026-05-05 19:14 | 51.68917 | 7.83870 | 17876 ft | 234 kts | 176° |
| 2026-05-05 19:14 | 51.67307 | 7.84037 | 18247 ft | 233 kts | 176° |
| 2026-05-05 19:15 | 51.65693 | 7.84206 | 18573 ft | 235 kts | 176° |
| 2026-05-05 19:15 | 51.64049 | 7.84377 | 18822 ft | 238 kts | 176° |
| 2026-05-05 19:15 | 51.62381 | 7.84549 | 19075 ft | 241 kts | 176° |
| 2026-05-05 19:15 | 51.60715 | 7.84723 | 19326 ft | 243 kts | 176° |
| 2026-05-05 19:16 | 51.59017 | 7.84900 | 19577 ft | 245 kts | 176° |
| 2026-05-05 19:16 | 51.57316 | 7.85075 | 19825 ft | 247 kts | 176° |
| 2026-05-05 19:16 | 51.55589 | 7.85253 | 20081 ft | 248 kts | 176° |
| 2026-05-05 19:16 | 51.53892 | 7.85428 | 20329 ft | 248 kts | 176° |
| 2026-05-05 19:17 | 51.52167 | 7.85607 | 20578 ft | 249 kts | 176° |
| 2026-05-05 19:17 | 51.50443 | 7.85784 | 20828 ft | 249 kts | 176° |
| 2026-05-05 19:17 | 51.48698 | 7.85964 | 21080 ft | 249 kts | 176° |
| 2026-05-05 19:17 | 51.46980 | 7.86141 | 21329 ft | 249 kts | 176° |
| 2026-05-05 19:18 | 51.45255 | 7.86319 | 21573 ft | 249 kts | 176° |
| 2026-05-05 19:18 | 51.43527 | 7.86497 | 21816 ft | 249 kts | 176° |
| 2026-05-05 19:18 | 51.41818 | 7.86672 | 22053 ft | 249 kts | 176° |
| 2026-05-05 19:18 | 51.40073 | 7.86849 | 22307 ft | 248 kts | 176° |
| 2026-05-05 19:19 | 51.38360 | 7.87026 | 22554 ft | 248 kts | 175° |
| 2026-05-05 19:19 | 51.36642 | 7.87202 | 22800 ft | 248 kts | 175° |
| 2026-05-05 19:19 | 51.34932 | 7.87376 | 23049 ft | 247 kts | 175° |
| 2026-05-05 19:19 | 51.33237 | 7.87551 | 23309 ft | 246 kts | 175° |
| 2026-05-05 19:20 | 51.31527 | 7.87727 | 23550 ft | 245 kts | 175° |
| 2026-05-05 19:20 | 51.29826 | 7.87900 | 23769 ft | 246 kts | 176° |
| 2026-05-05 19:20 | 51.28100 | 7.88078 | 23804 ft | 253 kts | 175° |
| 2026-05-05 19:20 | 51.26319 | 7.88260 | 23814 ft | 260 kts | 176° |
| 2026-05-05 19:21 | 51.24498 | 7.88445 | 23818 ft | 266 kts | 175° |
| 2026-05-05 19:21 | 51.22623 | 7.88637 | 23812 ft | 271 kts | 176° |
| 2026-05-05 19:21 | 51.20742 | 7.88827 | 23938 ft | 271 kts | 175° |
| 2026-05-05 19:21 | 51.18899 | 7.89047 | 24179 ft | 266 kts | 168° |
| 2026-05-05 19:22 | 51.17161 | 7.89962 | 24446 ft | 261 kts | 158° |
| 2026-05-05 19:22 | 51.15533 | 7.91189 | 24708 ft | 258 kts | 153° |
| 2026-05-05 19:22 | 51.13978 | 7.92557 | 24970 ft | 255 kts | 150° |
| 2026-05-05 19:22 | 51.12458 | 7.93997 | 25243 ft | 252 kts | 149° |
| 2026-05-05 19:23 | 51.10967 | 7.95460 | 25497 ft | 250 kts | 148° |
| 2026-05-05 19:23 | 51.09522 | 7.96905 | 25761 ft | 248 kts | 148° |
| 2026-05-05 19:23 | 51.08071 | 7.98367 | 26026 ft | 246 kts | 148° |
| 2026-05-05 19:23 | 51.06640 | 7.99814 | 26292 ft | 244 kts | 148° |
| 2026-05-05 19:24 | 51.05215 | 8.01258 | 26560 ft | 241 kts | 148° |
| 2026-05-05 19:24 | 51.03813 | 8.02680 | 26824 ft | 240 kts | 148° |
| 2026-05-05 19:24 | 51.02412 | 8.04096 | 27091 ft | 238 kts | 147° |
| 2026-05-05 19:24 | 51.01097 | 8.05623 | 27365 ft | 236 kts | 137° |
| 2026-05-05 19:25 | 50.99736 | 8.07001 | 27669 ft | 232 kts | 150° |
| 2026-05-05 19:25 | 50.98355 | 8.08311 | 27948 ft | 231 kts | 149° |
| 2026-05-05 19:25 | 50.96988 | 8.09645 | 28217 ft | 229 kts | 148° |
| 2026-05-05 19:25 | 50.95649 | 8.10967 | 28427 ft | 229 kts | 148° |
| 2026-05-05 19:26 | 50.94291 | 8.12323 | 28561 ft | 232 kts | 148° |
| 2026-05-05 19:26 | 50.92915 | 8.13698 | 28703 ft | 235 kts | 147° |
| 2026-05-05 19:26 | 50.91533 | 8.15084 | 28776 ft | 239 kts | 147° |
| 2026-05-05 19:26 | 50.90106 | 8.16521 | 28781 ft | 245 kts | 147° |
| 2026-05-05 19:27 | 50.88651 | 8.17982 | 28788 ft | 251 kts | 147° |
| 2026-05-05 19:27 | 50.87166 | 8.19477 | 28789 ft | 256 kts | 147° |
| 2026-05-05 19:27 | 50.85662 | 8.20985 | 28791 ft | 260 kts | 147° |
| 2026-05-05 19:27 | 50.84123 | 8.22531 | 28790 ft | 263 kts | 147° |
| 2026-05-05 19:28 | 50.82566 | 8.24090 | 28793 ft | 266 kts | 147° |
| 2026-05-05 19:28 | 50.80929 | 8.25446 | 28799 ft | 268 kts | 153° |
| 2026-05-05 19:28 | 50.79262 | 8.26725 | 28794 ft | 270 kts | 153° |
| 2026-05-05 19:28 | 50.77566 | 8.28000 | 28795 ft | 271 kts | 154° |
| 2026-05-05 19:29 | 50.75834 | 8.29284 | 28709 ft | 275 kts | 154° |
| 2026-05-05 19:29 | 50.74114 | 8.30552 | 28579 ft | 277 kts | 154° |
| 2026-05-05 19:29 | 50.72352 | 8.31848 | 28443 ft | 279 kts | 154° |
| 2026-05-05 19:29 | 50.70597 | 8.33139 | 28309 ft | 281 kts | 154° |
| 2026-05-05 19:30 | 50.68825 | 8.34438 | 28176 ft | 281 kts | 154° |
| 2026-05-05 19:30 | 50.67071 | 8.35721 | 28042 ft | 281 kts | 154° |
| 2026-05-05 19:30 | 50.65300 | 8.37017 | 27903 ft | 281 kts | 154° |
| 2026-05-05 19:30 | 50.63515 | 8.38322 | 27766 ft | 281 kts | 154° |
| 2026-05-05 19:31 | 50.61743 | 8.39619 | 27623 ft | 281 kts | 154° |
| 2026-05-05 19:31 | 50.59997 | 8.40893 | 27485 ft | 281 kts | 154° |
| 2026-05-05 19:31 | 50.58206 | 8.42192 | 27343 ft | 281 kts | 154° |
| 2026-05-05 19:31 | 50.56446 | 8.43479 | 27191 ft | 281 kts | 154° |
| 2026-05-05 19:32 | 50.54677 | 8.44768 | 27052 ft | 280 kts | 154° |
| 2026-05-05 19:32 | 50.52919 | 8.46050 | 26914 ft | 277 kts | 154° |
| 2026-05-05 19:32 | 50.51196 | 8.47296 | 26736 ft | 274 kts | 153° |
| 2026-05-05 19:32 | 50.49473 | 8.48540 | 26574 ft | 270 kts | 154° |
| 2026-05-05 19:33 | 50.47786 | 8.49774 | 26361 ft | 269 kts | 153° |
| 2026-05-05 19:33 | 50.46091 | 8.51005 | 26194 ft | 268 kts | 153° |
| 2026-05-05 19:33 | 50.44405 | 8.52227 | 26000 ft | 267 kts | 154° |
| 2026-05-05 19:33 | 50.42707 | 8.53452 | 25814 ft | 267 kts | 154° |
| 2026-05-05 19:34 | 50.41043 | 8.54656 | 25634 ft | 267 kts | 155° |
| 2026-05-05 19:34 | 50.39356 | 8.55874 | 25458 ft | 267 kts | 154° |
| 2026-05-05 19:34 | 50.37637 | 8.56982 | 25264 ft | 268 kts | 158° |
| 2026-05-05 19:35 | 50.34127 | 8.58962 | 24867 ft | 270 kts | 159° |
| 2026-05-05 19:35 | 50.32360 | 8.59927 | 24689 ft | 270 kts | 159° |
| 2026-05-05 19:35 | 50.30569 | 8.60903 | 24507 ft | 271 kts | 159° |
| 2026-05-05 19:35 | 50.28801 | 8.61862 | 24291 ft | 271 kts | 158° |
| 2026-05-05 19:36 | 50.27021 | 8.62832 | 24107 ft | 273 kts | 159° |
| 2026-05-05 19:36 | 50.25213 | 8.63804 | 23916 ft | 274 kts | 159° |
| 2026-05-05 19:36 | 50.23413 | 8.64778 | 23717 ft | 275 kts | 160° |
| 2026-05-05 19:36 | 50.21594 | 8.65755 | 23555 ft | 277 kts | 159° |
| 2026-05-05 19:37 | 50.19779 | 8.66735 | 23364 ft | 278 kts | 159° |
| 2026-05-05 19:37 | 50.17960 | 8.67714 | 23157 ft | 279 kts | 160° |
| 2026-05-05 19:37 | 50.16133 | 8.68698 | 22977 ft | 280 kts | 160° |
| 2026-05-05 19:37 | 50.14289 | 8.69688 | 22831 ft | 279 kts | 160° |
| 2026-05-05 19:38 | 50.12473 | 8.70660 | 22801 ft | 275 kts | 160° |
| 2026-05-05 19:38 | 50.10685 | 8.71614 | 22807 ft | 270 kts | 160° |
| 2026-05-05 19:38 | 50.08908 | 8.72572 | 22797 ft | 267 kts | 161° |
| 2026-05-05 19:38 | 50.07180 | 8.73500 | 22810 ft | 264 kts | 161° |
| 2026-05-05 19:39 | 50.05445 | 8.74431 | 22810 ft | 262 kts | 160° |
| 2026-05-05 19:39 | 50.03727 | 8.75348 | 22811 ft | 261 kts | 160° |
| 2026-05-05 19:39 | 50.02019 | 8.76261 | 22805 ft | 260 kts | 160° |
| 2026-05-05 19:39 | 50.00320 | 8.77252 | 22800 ft | 258 kts | 155° |
| 2026-05-05 19:40 | 49.98712 | 8.78371 | 22811 ft | 257 kts | 155° |
| 2026-05-05 19:40 | 49.97080 | 8.79535 | 22704 ft | 260 kts | 155° |
| 2026-05-05 19:40 | 49.95413 | 8.80740 | 22460 ft | 268 kts | 155° |
| 2026-05-05 19:40 | 49.93706 | 8.81978 | 22225 ft | 274 kts | 155° |
| 2026-05-05 19:41 | 49.91970 | 8.83239 | 21977 ft | 278 kts | 155° |
| 2026-05-05 19:41 | 49.90219 | 8.84511 | 21729 ft | 282 kts | 155° |
| 2026-05-05 19:41 | 49.88440 | 8.85804 | 21483 ft | 284 kts | 155° |
| 2026-05-05 19:41 | 49.86643 | 8.87108 | 21228 ft | 286 kts | 155° |
| 2026-05-05 19:42 | 49.84824 | 8.88428 | 20907 ft | 289 kts | 155° |
| 2026-05-05 19:42 | 49.83011 | 8.89745 | 20541 ft | 293 kts | 156° |
| 2026-05-05 19:42 | 49.81165 | 8.91083 | 20169 ft | 295 kts | 156° |
| 2026-05-05 19:42 | 49.79290 | 8.92442 | 19795 ft | 297 kts | 156° |
| 2026-05-05 19:43 | 49.77430 | 8.93787 | 19420 ft | 298 kts | 156° |
| 2026-05-05 19:43 | 49.75541 | 8.95155 | 19044 ft | 299 kts | 157° |
| 2026-05-05 19:43 | 49.73661 | 8.96511 | 18668 ft | 300 kts | 157° |
| 2026-05-05 19:43 | 49.71775 | 8.97872 | 18293 ft | 300 kts | 157° |
| 2026-05-05 19:44 | 49.69894 | 8.99226 | 17921 ft | 300 kts | 157° |
| 2026-05-05 19:44 | 49.68028 | 9.00571 | 17558 ft | 300 kts | 158° |
| 2026-05-05 19:44 | 49.66113 | 9.01949 | 17186 ft | 301 kts | 158° |
| 2026-05-05 19:44 | 49.64242 | 9.03294 | 16815 ft | 300 kts | 158° |
| 2026-05-05 19:45 | 49.62339 | 9.04659 | 16439 ft | 300 kts | 158° |
| 2026-05-05 19:45 | 49.60475 | 9.05999 | 16069 ft | 298 kts | 158° |
| 2026-05-05 19:45 | 49.58579 | 9.07283 | 15684 ft | 295 kts | 163° |
| 2026-05-05 19:45 | 49.56718 | 9.08565 | 15314 ft | 294 kts | 158° |
| 2026-05-05 19:46 | 49.54876 | 9.09910 | 14948 ft | 293 kts | 158° |
| 2026-05-05 19:46 | 49.53052 | 9.11238 | 14576 ft | 289 kts | 158° |
| 2026-05-05 19:46 | 49.51237 | 9.12544 | 14199 ft | 286 kts | 158° |
| 2026-05-05 19:46 | 49.49452 | 9.13826 | 13829 ft | 285 kts | 158° |
| 2026-05-05 19:47 | 49.47669 | 9.15103 | 13459 ft | 283 kts | 159° |
| 2026-05-05 19:47 | 49.45887 | 9.16372 | 13089 ft | 282 kts | 159° |
| 2026-05-05 19:47 | 49.44118 | 9.17636 | 12718 ft | 281 kts | 159° |
| 2026-05-05 19:47 | 49.42348 | 9.18896 | 12347 ft | 281 kts | 159° |
| 2026-05-05 19:48 | 49.40581 | 9.20153 | 11973 ft | 280 kts | 159° |
| 2026-05-05 19:48 | 49.38810 | 9.21415 | 11598 ft | 280 kts | 159° |
| 2026-05-05 19:48 | 49.37048 | 9.22666 | 11229 ft | 281 kts | 159° |
| 2026-05-05 19:48 | 49.35276 | 9.23927 | 10858 ft | 281 kts | 159° |
| 2026-05-05 19:49 | 49.33528 | 9.25168 | 10491 ft | 280 kts | 159° |
| 2026-05-05 19:49 | 49.32341 | 9.26009 | 10238 ft | 280 kts | 159° |
| 2026-05-05 19:49 | 49.29981 | 9.27681 | 9736 ft | 280 kts | 159° |
| 2026-05-05 19:49 | 49.28212 | 9.28936 | 9361 ft | 280 kts | 159° |
| 2026-05-05 19:50 | 49.26438 | 9.30191 | 8993 ft | 280 kts | 159° |
| 2026-05-05 19:50 | 49.24704 | 9.31420 | 8844 ft | 272 kts | 159° |
| 2026-05-05 19:50 | 49.23003 | 9.32624 | 8824 ft | 268 kts | 159° |
| 2026-05-05 19:50 | 49.21317 | 9.33813 | 8827 ft | 270 kts | 159° |
| 2026-05-05 19:51 | 49.19603 | 9.35024 | 8828 ft | 271 kts | 159° |
| 2026-05-05 19:51 | 49.17889 | 9.36232 | 8835 ft | 273 kts | 159° |
| 2026-05-05 19:51 | 49.16161 | 9.37449 | 8833 ft | 273 kts | 159° |
| 2026-05-05 19:51 | 49.14432 | 9.38666 | 8838 ft | 274 kts | 159° |
| 2026-05-05 19:52 | 49.12700 | 9.39883 | 8836 ft | 275 kts | 159° |
| 2026-05-05 19:52 | 49.10955 | 9.41111 | 8643 ft | 278 kts | 159° |
| 2026-05-05 19:52 | 49.09213 | 9.42333 | 8397 ft | 280 kts | 158° |
| 2026-05-05 19:52 | 49.07433 | 9.43584 | 8151 ft | 282 kts | 159° |
| 2026-05-05 19:53 | 49.05631 | 9.44849 | 7848 ft | 285 kts | 158° |
| 2026-05-05 19:53 | 49.03831 | 9.46111 | 7568 ft | 286 kts | 159° |
| 2026-05-05 19:53 | 49.02065 | 9.47348 | 7262 ft | 276 kts | 159° |
| 2026-05-05 19:53 | 49.00354 | 9.48546 | 6956 ft | 268 kts | 159° |
| 2026-05-05 19:54 | 48.98683 | 9.49712 | 6699 ft | 261 kts | 159° |
| 2026-05-05 19:54 | 48.97057 | 9.50848 | 6449 ft | 256 kts | 159° |
| 2026-05-05 19:54 | 48.95446 | 9.51973 | 6197 ft | 253 kts | 159° |
| 2026-05-05 19:54 | 48.93846 | 9.53088 | 5949 ft | 251 kts | 159° |
| 2026-05-05 19:55 | 48.92276 | 9.54183 | 5701 ft | 250 kts | 159° |
| 2026-05-05 19:55 | 48.90690 | 9.55288 | 5458 ft | 254 kts | 159° |
| 2026-05-05 19:55 | 48.89057 | 9.56424 | 5210 ft | 256 kts | 158° |
| 2026-05-05 19:55 | 48.87439 | 9.57550 | 5043 ft | 255 kts | 158° |
| 2026-05-05 19:56 | 48.85851 | 9.58655 | 5005 ft | 251 kts | 158° |
| 2026-05-05 19:56 | 48.84270 | 9.59751 | 4998 ft | 251 kts | 159° |
| 2026-05-05 19:56 | 48.82679 | 9.60861 | 5002 ft | 251 kts | 159° |
| 2026-05-05 19:56 | 48.81071 | 9.61975 | 4788 ft | 259 kts | 159° |
| 2026-05-05 19:57 | 48.79376 | 9.63008 | 4473 ft | 264 kts | 172° |
| 2026-05-05 19:57 | 48.78207 | 9.62920 | 4162 ft | 247 kts | 198° |
| 2026-05-05 19:57 | 48.76632 | 9.61018 | 4001 ft | 198 kts | 234° |
| 2026-05-05 19:57 | 48.76102 | 9.59257 | 3990 ft | 174 kts | 249° |
| 2026-05-05 19:58 | 48.75721 | 9.57613 | 3988 ft | 160 kts | 252° |
| 2026-05-05 19:58 | 48.75383 | 9.56018 | 3996 ft | 158 kts | 253° |
| 2026-05-05 19:58 | 48.75060 | 9.54414 | 4010 ft | 162 kts | 253° |
| 2026-05-05 19:58 | 48.74740 | 9.52767 | 4002 ft | 165 kts | 254° |
| 2026-05-05 19:59 | 48.74418 | 9.51089 | 4001 ft | 168 kts | 254° |
| 2026-05-05 19:59 | 48.74094 | 9.49363 | 4004 ft | 171 kts | 254° |
| 2026-05-05 19:59 | 48.73766 | 9.47616 | 4002 ft | 174 kts | 254° |
| 2026-05-05 19:59 | 48.73437 | 9.45860 | 4004 ft | 176 kts | 254° |
| 2026-05-05 20:00 | 48.73103 | 9.44072 | 3793 ft | 175 kts | 255° |
| 2026-05-05 20:00 | 48.72772 | 9.42301 | 3578 ft | 174 kts | 254° |
| 2026-05-05 20:00 | 48.72443 | 9.40553 | 3362 ft | 173 kts | 255° |
| 2026-05-05 20:00 | 48.72117 | 9.38812 | 3143 ft | 170 kts | 254° |
| 2026-05-05 20:01 | 48.71801 | 9.37123 | 2909 ft | 164 kts | 254° |
| 2026-05-05 20:01 | 48.71497 | 9.35511 | 2690 ft | 156 kts | 254° |
| 2026-05-05 20:01 | 48.71203 | 9.33949 | 2473 ft | 147 kts | 255° |
| 2026-05-05 20:01 | 48.70956 | 9.32612 | 2279 ft | 122 kts | 254° |
| 2026-05-05 20:02 | 48.70741 | 9.31469 | 2150 ft | 103 kts | 253° |
| 2026-05-05 20:02 | 48.70548 | 9.30463 | 2012 ft | 96 kts | 255° |
| 2026-05-05 20:02 | 48.70372 | 9.29536 | 1885 ft | 88 kts | 254° |
| 2026-05-05 20:02 | 48.70218 | 9.28694 | 1792 ft | 82 kts | 254° |
| 2026-05-05 20:03 | 48.70065 | 9.27880 | 1675 ft | 80 kts | 255° |
| 2026-05-05 20:03 | 48.69934 | 9.27075 | 1557 ft | 81 kts | 253° |
| 2026-05-05 20:03 | 48.69755 | 9.26276 | 1427 ft | 83 kts | 253° |
| 2026-05-05 20:03 | 48.69589 | 9.25418 | 1306 ft | 82 kts | 253° |
| 2026-05-05 20:04 | 48.69445 | 9.24630 | 1201 ft | 76 kts | 250° |
| 2026-05-05 20:04 | 48.69319 | 9.23914 | 1183 ft | 57 kts | 255° |
| 2026-05-05 20:04 | 48.69242 | 9.23562 | 1189 ft | 17 kts | 250° |
| 2026-05-05 20:04 | 48.69211 | 9.23399 | 1192 ft | 19 kts | 256° |
| 2026-05-05 20:05 | 48.69207 | 9.23243 | 1196 ft | 12 kts | 332° |
| 2026-05-05 20:05 | 48.69330 | 9.23169 | 1199 ft | 19 kts | 342° |
| 2026-05-05 20:05 | 48.69403 | 9.23068 | 1203 ft | 13 kts | 277° |
| 2026-05-05 20:05 | 48.69364 | 9.22825 | 1211 ft | 25 kts | 252° |
| 2026-05-05 20:06 | 48.69325 | 9.22613 | 1217 ft | 16 kts | 255° |
| 2026-05-05 20:06 | 48.69299 | 9.22467 | 1222 ft | 11 kts | 253° |
| 2026-05-05 20:06 | 48.69274 | 9.22344 | 1224 ft | 12 kts | 254° |
| 2026-05-05 20:06 | 48.69246 | 9.22192 | 1228 ft | 14 kts | 259° |
| 2026-05-05 20:07 | 48.69202 | 9.21955 | 1233 ft | 24 kts | 257° |
| 2026-05-05 20:07 | 48.69198 | 9.21778 | 1239 ft | 7 kts | 307° |
| 2026-05-05 20:07 | 48.69198 | 9.21759 | 1239 ft | 0 kts | 256° |